Time;durP1;ratioP1;P1;durP2;ratioP2;P2;SDS_P1;SDS_P2;PMS_P1;PMS_P2;Temp;Humidity;BMP_temperature;BMP_pressure;BME280_temperature;BME280_humidity;BME280_pressure;Samples;Min_cycle;Max_cycle;Signal;HPM_P1;HPM_P2
2022/12/14 00:00:45;;;;;;;14.45;6.57;;;;;;;-2.56;78.25;100438.41;5030972;28;20366;-78
2022/12/14 00:03:11;;;;;;;11.85;6.28;;;;;;;-2.56;79.02;100422.09;5030239;28;20041;-77
2022/12/14 00:05:37;;;;;;;19.38;13.68;;;;;;;-2.61;78.07;100424.81;5022812;28;20045;-77
2022/12/14 00:08:06;;;;;;;18.05;13.85;;;;;;;-2.61;77.97;100418.81;5019140;28;20029;-77
2022/12/14 00:10:33;;;;;;;17.02;13.15;;;;;;;-2.64;78.28;100406.88;5029222;28;20029;-77
2022/12/14 00:12:58;;;;;;;16.73;13.55;;;;;;;-2.65;78.13;100405.19;5030893;28;20087;-77
2022/12/14 00:15:24;;;;;;;18.30;6.25;;;;;;;-2.61;78.11;100404.19;5030944;28;20033;-77
2022/12/14 00:17:49;;;;;;;18.63;14.05;;;;;;;-2.65;77.31;100405.19;5030361;28;20018;-77
2022/12/14 00:20:15;;;;;;;14.07;5.53;;;;;;;-2.61;78.17;100399.06;5031085;28;20231;-77
2022/12/14 00:22:40;;;;;;;16.98;12.82;;;;;;;-2.67;77.70;100401.81;5011923;28;20393;-77
2022/12/14 00:25:06;;;;;;;17.83;13.43;;;;;;;-2.67;77.95;100404.38;5013080;28;20086;-78
2022/12/14 00:27:31;;;;;;;21.80;7.63;;;;;;;-2.65;77.04;100402.59;5012790;28;20124;-77
2022/12/14 00:29:57;;;;;;;10.95;5.38;;;;;;;-2.64;77.52;100401.72;5031430;28;20058;-76
2022/12/14 00:32:22;;;;;;;17.95;5.95;;;;;;;-2.63;77.82;100408.56;5030316;28;20470;-75
2022/12/14 00:34:48;;;;;;;17.42;12.75;;;;;;;-2.70;77.64;100401.88;5013998;28;20037;-75
2022/12/14 00:37:13;;;;;;;11.95;5.07;;;;;;;-2.65;78.21;100396.59;5026868;28;20029;-75
2022/12/14 00:39:39;;;;;;;25.23;13.88;;;;;;;-2.73;78.10;100391.66;5020575;28;20037;-75
2022/12/14 00:42:04;;;;;;;15.57;12.43;;;;;;;-2.73;78.12;100388.25;5031207;28;20025;-74
2022/12/14 00:44:30;;;;;;;18.75;12.93;;;;;;;-2.75;78.34;100380.56;5010472;28;20060;-74
2022/12/14 00:46:55;;;;;;;16.15;12.82;;;;;;;-2.77;77.87;100372.03;5030542;28;20053;-74
2022/12/14 00:49:21;;;;;;;15.98;5.97;;;;;;;-2.71;77.92;100360.72;5029517;28;20034;-74
2022/12/14 00:51:46;;;;;;;15.15;5.00;;;;;;;-2.73;77.92;100365.94;5030048;28;20375;-74
2022/12/14 00:54:11;;;;;;;12.77;5.03;;;;;;;-2.73;77.59;100360.78;5030274;28;20040;-76
2022/12/14 00:56:37;;;;;;;17.50;13.30;;;;;;;-2.80;77.85;100361.84;4997534;28;20025;-73
2022/12/14 00:59:05;;;;;;;15.95;11.82;;;;;;;-2.84;77.23;100360.19;5002209;28;20033;-74
2022/12/14 01:01:30;;;;;;;18.05;12.73;;;;;;;-2.86;77.72;100356.81;5011290;28;20485;-73
2022/12/14 01:06:41;;;;;;;16.23;12.60;;;;;;;-2.91;77.44;100356.09;5029572;28;20064;-75
2022/12/14 01:09:06;;;;;;;15.50;12.52;;;;;;;-2.92;77.47;100351.84;5012277;28;20432;-75
2022/12/14 01:11:32;;;;;;;10.55;4.47;;;;;;;-2.89;78.12;100352.59;5030498;28;20013;-76
2022/12/14 01:13:57;;;;;;;17.77;7.10;;;;;;;-2.92;77.82;100351.84;5018399;28;20383;-75
2022/12/14 01:16:22;;;;;;;12.65;5.65;;;;;;;-2.92;78.52;100346.69;5018680;28;20033;-76
2022/12/14 01:18:47;;;;;;;15.52;11.63;;;;;;;-2.99;78.20;100346.03;5028611;28;20021;-76
2022/12/14 01:21:19;;;;;;;16.55;12.55;;;;;;;-2.98;78.27;100346.88;5028761;28;20121;-74
2022/12/14 01:23:45;;;;;;;14.98;11.60;;;;;;;-2.99;78.16;100346.03;5012417;28;20079;-74
2022/12/14 01:26:15;;;;;;;12.25;5.35;;;;;;;-2.94;78.47;100348.47;5029368;28;20025;-73
2022/12/14 01:28:41;;;;;;;15.95;12.48;;;;;;;-3.02;78.38;100345.25;5026828;28;20049;-73
2022/12/14 01:31:19;;;;;;;17.58;13.38;;;;;;;-3.00;78.63;100348.63;5011269;28;20088;-75
2022/12/14 01:33:45;;;;;;;12.20;5.40;;;;;;;-2.97;78.76;100341.69;5011650;28;20384;-76
2022/12/14 01:36:16;;;;;;;11.85;5.75;;;;;;;-2.96;78.37;100337.38;5029579;28;20026;-75
2022/12/14 01:38:42;;;;;;;15.15;12.18;;;;;;;-3.04;78.46;100336.75;5029701;28;20077;-76
2022/12/14 01:41:29;;;;;;;15.45;12.00;;;;;;;-3.01;78.08;100345.22;5012252;28;20051;-74
2022/12/14 01:44:00;;;;;;;14.32;6.38;;;;;;;-2.98;77.70;100346.88;5012832;28;20389;-75
2022/12/14 01:46:34;;;;;;;12.57;4.90;;;;;;;-2.96;78.15;100339.94;5015660;28;20033;-75
2022/12/14 01:49:21;;;;;;;13.80;5.07;;;;;;;-2.97;78.05;100351.13;5029015;28;20035;-75
2022/12/14 01:52:12;;;;;;;11.18;5.65;;;;;;;-2.99;78.37;100352.91;5029157;28;20512;-74
2022/12/14 01:54:55;;;;;;;11.55;4.93;;;;;;;-3.00;78.34;100348.63;5004433;28;20388;-75
2022/12/14 01:57:35;;;;;;;12.07;5.72;;;;;;;-3.02;78.08;100334.97;5029063;28;20029;-75
2022/12/14 02:00:05;;;;;;;13.50;5.47;;;;;;;-3.04;78.11;100341.88;5009160;28;20486;-74
2022/12/14 02:02:31;;;;;;;16.13;12.00;;;;;;;-3.12;78.13;100333.53;5010697;28;20026;-75
2022/12/14 02:05:00;;;;;;;11.43;5.50;;;;;;;-3.06;78.41;100328.22;5028097;28;20116;-74
2022/12/14 02:07:29;;;;;;;16.23;12.50;;;;;;;-3.14;77.75;100320.72;5010642;28;20466;-74
2022/12/14 02:09:57;;;;;;;14.77;11.73;;;;;;;-3.19;78.42;100320.84;5028021;28;20029;-74
2022/12/14 02:12:31;;;;;;;12.52;5.57;;;;;;;-3.12;77.81;100318.94;5020106;28;20030;-74
2022/12/14 02:14:57;;;;;;;13.73;6.30;;;;;;;-3.12;78.08;100318.09;5022584;28;20113;-74
2022/12/14 02:17:23;;;;;;;15.88;12.23;;;;;;;-3.17;77.78;100311.34;5025410;28;20116;-75
2022/12/14 02:19:49;;;;;;;17.17;12.45;;;;;;;-3.21;78.38;100314.84;5028113;28;20025;-74
2022/12/14 02:22:41;;;;;;;14.93;5.70;;;;;;;-3.14;79.08;100309.59;5028145;28;20033;-74
2022/12/14 02:25:27;;;;;;;11.57;4.93;;;;;;;-3.15;78.83;100313.88;5027623;28;20033;-74
2022/12/14 02:28:34;;;;;;;16.17;12.02;;;;;;;-3.24;78.51;100309.78;5027558;28;20084;-74
2022/12/14 02:31:32;;;;;;;15.73;11.77;;;;;;;-3.26;78.81;100316.72;4967015;28;20109;-74
2022/12/14 02:34:13;;;;;;;12.55;5.70;;;;;;;-3.21;79.15;100311.44;5003468;28;20128;-74
2022/12/14 02:37:09;;;;;;;14.25;5.68;;;;;;;-3.20;79.29;100306.28;5002605;28;20029;-76
2022/12/14 02:40:04;;;;;;;16.38;6.28;;;;;;;-3.21;79.32;100302.00;5017610;28;20025;-74
2022/12/14 02:43:00;;;;;;;14.13;5.80;;;;;;;-3.20;79.22;100305.44;5006906;28;20060;-74
2022/12/14 02:45:42;;;;;;;13.10;5.75;;;;;;;-3.21;79.18;100294.28;5004775;28;20512;-74
2022/12/14 02:48:16;;;;;;;14.40;11.63;;;;;;;-3.29;79.68;100295.38;5014651;28;20426;-74
2022/12/14 02:51:00;;;;;;;14.55;11.85;;;;;;;-3.32;79.68;100291.16;5027989;28;20100;-74
2022/12/14 02:53:33;;;;;;;10.50;4.55;;;;;;;-3.25;79.94;100296.97;5026422;28;20076;-74
2022/12/14 02:56:05;;;;;;;14.75;11.40;;;;;;;-3.32;79.50;100293.72;5030612;28;20574;-74
2022/12/14 02:58:37;;;;;;;;;;;;;;;-3.24;79.61;100294.38;5031815;28;20548;-76
2022/12/14 03:01:11;;;;;;;15.23;11.73;;;;;;;-3.28;79.13;100297.91;5031832;28;19921;-74
2022/12/14 03:03:37;;;;;;;15.73;12.18;;;;;;;-3.26;79.12;100296.13;5014362;28;20029;-74
2022/12/14 03:06:13;;;;;;;15.40;11.45;;;;;;;-3.24;78.53;100298.66;5029946;28;20064;-73
2022/12/14 03:08:42;;;;;;;12.65;4.70;;;;;;;-3.18;78.88;100301.94;5018667;28;20132;-75
2022/12/14 03:11:11;;;;;;;13.30;4.57;;;;;;;-3.17;78.54;100295.91;5032204;28;20029;-74
2022/12/14 03:13:42;;;;;;;9.60;5.05;;;;;;;-3.14;78.23;100295.00;5013563;28;20025;-74
2022/12/14 03:16:13;;;;;;;14.63;11.32;;;;;;;-3.16;77.39;100305.31;5014407;28;20030;-74
2022/12/14 03:18:53;;;;;;;15.85;11.82;;;;;;;-3.18;77.95;100294.22;5030506;28;20348;-74
2022/12/14 03:21:27;;;;;;;16.83;11.35;;;;;;;-3.19;78.65;100284.81;5030970;28;20505;-75
2022/12/14 03:23:55;;;;;;;10.85;4.60;;;;;;;-3.11;78.78;100282.03;5029234;28;20032;-74
2022/12/14 03:26:26;;;;;;;9.70;4.03;;;;;;;-3.10;78.87;100285.47;4997210;28;20116;-74
2022/12/14 03:29:01;;;;;;;12.93;5.55;;;;;;;-3.10;78.93;100275.16;5028908;28;20166;-74
2022/12/14 03:31:38;;;;;;;14.15;11.30;;;;;;;-3.21;78.94;100268.56;5031096;28;20080;-74
2022/12/14 03:34:10;;;;;;;15.23;10.73;;;;;;;-3.22;79.74;100251.44;5030668;28;20044;-76
2022/12/14 03:36:46;;;;;;;9.98;4.88;;;;;;;-3.16;79.35;100255.59;5026536;28;20395;-74
2022/12/14 03:39:19;;;;;;;9.93;4.53;;;;;;;-3.16;79.71;100247.88;5029491;28;20029;-74
2022/12/14 03:42:17;;;;;;;15.98;12.07;;;;;;;-3.26;79.58;100256.72;5001967;28;20362;-74
2022/12/14 03:45:05;;;;;;;15.25;12.13;;;;;;;-3.22;79.53;100242.88;4999899;28;20043;-74
2022/12/14 03:47:55;;;;;;;12.57;4.85;;;;;;;-3.18;80.21;100250.50;5029656;28;20029;-74
2022/12/14 03:50:38;;;;;;;16.02;11.98;;;;;;;-3.27;80.52;100258.44;5012350;28;20029;-74
2022/12/14 03:53:20;;;;;;;11.75;4.85;;;;;;;-3.19;80.59;100250.53;5013829;28;20021;-74
2022/12/14 03:55:55;;;;;;;11.52;4.95;;;;;;;-3.19;80.24;100246.25;5030059;28;20033;-74
2022/12/14 03:58:41;;;;;;;10.57;4.90;;;;;;;-3.19;80.13;100247.97;5003954;28;20411;-74
2022/12/14 04:01:12;;;;;;;8.52;4.97;;;;;;;-3.19;80.09;100241.09;5020232;28;20034;-74
2022/12/14 04:03:59;;;;;;;15.30;4.97;;;;;;;-3.18;80.60;100232.50;5013570;28;20510;-74
2022/12/14 04:06:52;;;;;;;10.98;4.97;;;;;;;-3.20;80.08;100229.13;5030996;28;20025;-74
2022/12/14 04:09:27;;;;;;;14.85;11.65;;;;;;;-3.29;79.56;100238.78;5031475;28;20391;-74
2022/12/14 04:20:54;;;;;;;8.68;4.30;;;;;;;-3.19;80.35;100209.38;5011551;28;20053;-74
2022/12/14 04:26:16;;;;;;;10.63;4.75;;;;;;;-3.21;80.08;100204.25;5030342;28;20107;-74
2022/12/14 04:31:38;;;;;;;14.07;5.45;;;;;;;-3.22;80.08;100209.44;5010597;28;20108;-74
2022/12/14 04:34:06;;;;;;;14.93;11.90;;;;;;;-3.32;79.57;100208.84;5009641;28;20017;-74
2022/12/14 04:36:44;;;;;;;12.02;4.93;;;;;;;-3.26;80.12;100203.53;5029112;28;20495;-74
2022/12/14 04:39:19;;;;;;;9.38;5.10;;;;;;;-3.26;80.19;100198.41;5029676;28;20017;-78
2022/12/14 04:41:51;;;;;;;11.15;5.28;;;;;;;-3.26;80.56;100198.41;5018278;28;20021;-74
2022/12/14 04:44:35;;;;;;;12.13;5.45;;;;;;;-3.26;80.53;100193.25;5011327;28;20029;-75
2022/12/14 04:47:06;;;;;;;17.02;12.75;;;;;;;-3.34;80.33;100195.19;5026813;28;20044;-74
2022/12/14 04:49:40;;;;;;;17.27;12.35;;;;;;;-3.36;80.32;100189.25;5027586;28;20029;-73
2022/12/14 04:52:20;;;;;;;16.63;12.48;;;;;;;-3.37;80.95;100190.16;5028385;28;20029;-73
2022/12/14 04:54:57;;;;;;;14.00;5.00;;;;;;;-3.30;80.77;100186.50;5012796;28;20064;-74
2022/12/14 04:57:30;;;;;;;9.20;4.55;;;;;;;-3.29;80.85;100183.06;5028205;28;20033;-74
2022/12/14 04:59:58;;;;;;;17.50;12.63;;;;;;;-3.39;81.48;100178.22;5029594;28;20035;-74
2022/12/14 05:02:49;;;;;;;13.50;5.97;;;;;;;-3.30;81.43;100183.94;5030744;28;20048;-74
2022/12/14 05:05:38;;;;;;;13.25;5.63;;;;;;;-3.31;81.29;100182.25;5021340;28;20025;-74
2022/12/14 05:08:24;;;;;;;12.75;5.55;;;;;;;-3.31;81.85;100183.97;5012045;28;20033;-73
2022/12/14 05:11:02;;;;;;;14.70;5.93;;;;;;;-3.31;81.81;100184.81;5031092;28;20029;-73
2022/12/14 05:13:35;;;;;;;12.73;5.15;;;;;;;-3.28;81.95;100178.75;5029329;28;20053;-74
2022/12/14 05:16:06;;;;;;;16.27;5.82;;;;;;;-3.30;82.23;100178.78;5013503;28;20496;-74
2022/12/14 05:18:33;;;;;;;15.32;5.35;;;;;;;-3.28;81.58;100177.03;5029591;28;20096;-74
2022/12/14 05:20:58;;;;;;;8.60;4.97;;;;;;;-3.27;81.49;100175.28;5024706;28;20026;-74
2022/12/14 05:23:24;;;;;;;18.00;12.82;;;;;;;-3.35;82.39;100172.09;5010034;28;20071;-74
2022/12/14 05:25:49;;;;;;;12.38;5.82;;;;;;;-3.27;82.16;100160.69;5019460;28;20032;-73
2022/12/14 05:28:15;;;;;;;16.52;13.10;;;;;;;-3.34;82.06;100163.50;5029051;28;20116;-73
2022/12/14 05:30:40;;;;;;;19.10;12.50;;;;;;;-3.39;82.00;100161.06;5030290;28;20138;-74
2022/12/14 05:33:05;;;;;;;16.15;13.00;;;;;;;-3.40;82.40;100156.78;5029649;28;20087;-75
2022/12/14 05:35:31;;;;;;;10.90;5.35;;;;;;;-3.29;82.23;100162.47;5011996;28;20075;-75
2022/12/14 05:37:56;;;;;;;12.63;5.65;;;;;;;-3.28;82.17;100159.00;5014577;28;20125;-75
2022/12/14 05:40:22;;;;;;;19.83;5.90;;;;;;;-3.28;82.13;100153.03;4999221;28;20411;-75
2022/12/14 05:42:47;;;;;;;16.85;12.70;;;;;;;-3.41;82.73;100160.25;5010702;28;20137;-75
2022/12/14 05:45:13;;;;;;;14.10;5.65;;;;;;;-3.33;82.93;100160.88;5027564;28;20080;-74
2022/12/14 05:47:39;;;;;;;19.13;12.77;;;;;;;-3.42;83.36;100156.00;5029326;28;20037;-75
2022/12/14 05:50:05;;;;;;;17.42;6.07;;;;;;;-3.34;83.40;100164.34;5030048;28;20017;-75
2022/12/14 05:52:30;;;;;;;19.10;13.73;;;;;;;-3.44;84.24;100160.34;5007206;28;20071;-75
2022/12/14 05:54:56;;;;;;;18.98;7.10;;;;;;;-3.36;83.51;100158.41;4992389;28;20018;-74
2022/12/14 05:57:21;;;;;;;20.15;14.38;;;;;;;-3.45;84.49;100161.22;5026259;28;20029;-75
2022/12/14 05:59:46;;;;;;;19.40;13.20;;;;;;;-3.48;84.09;100156.19;5026618;28;20104;-75
2022/12/14 06:02:12;;;;;;;13.25;5.45;;;;;;;-3.38;84.27;100161.91;5027446;28;20489;-74
2022/12/14 06:04:37;;;;;;;12.68;5.65;;;;;;;-3.38;84.04;100157.59;5030335;28;20378;-75
2022/12/14 06:07:03;;;;;;;16.33;5.95;;;;;;;-3.38;83.98;100159.31;5030557;28;20045;-75
2022/12/14 06:09:28;;;;;;;10.63;5.82;;;;;;;-3.37;84.24;100149.00;5026284;28;20033;-75
2022/12/14 06:11:53;;;;;;;11.90;5.75;;;;;;;-3.36;83.95;100140.41;5034757;28;20024;-75
2022/12/14 06:14:19;;;;;;;14.38;6.53;;;;;;;-3.34;84.22;100148.91;5032145;28;20056;-75
2022/12/14 06:16:46;;;;;;;14.90;5.85;;;;;;;-3.33;84.12;100140.31;5016845;28;20116;-75
2022/12/14 06:19:12;;;;;;;16.95;6.13;;;;;;;-3.32;83.90;100142.00;5016673;28;20029;-75
2022/12/14 06:21:40;;;;;;;18.55;13.32;;;;;;;-3.43;84.39;100144.03;5015479;28;20041;-74
2022/12/14 06:24:06;;;;;;;18.08;13.80;;;;;;;-3.45;84.61;100145.81;5033510;28;20500;-74
2022/12/14 06:26:35;;;;;;;15.38;6.35;;;;;;;-3.33;84.36;100148.03;5014274;28;20021;-74
2022/12/14 06:29:05;;;;;;;11.27;5.60;;;;;;;-3.32;83.91;100146.28;5032875;28;20021;-74
2022/12/14 06:31:32;;;;;;;17.95;6.03;;;;;;;-3.32;84.05;100141.16;5032081;28;20482;-74
2022/12/14 06:34:00;;;;;;;16.10;5.65;;;;;;;-3.31;84.61;100140.25;5033555;28;20035;-74
2022/12/14 06:36:31;;;;;;;17.23;13.02;;;;;;;-3.42;83.88;100143.16;5015282;28;20028;-74
2022/12/14 06:39:00;;;;;;;18.17;12.82;;;;;;;-3.42;83.64;100145.72;5014556;28;20375;-75
2022/12/14 06:41:26;;;;;;;12.00;5.43;;;;;;;-3.34;84.12;100143.75;5032957;28;20083;-75
2022/12/14 06:43:52;;;;;;;12.90;5.68;;;;;;;-3.33;84.80;100150.59;5017927;28;20022;-74
2022/12/14 06:46:20;;;;;;;20.10;13.50;;;;;;;-3.43;85.41;100153.47;5030954;28;20029;-74
2022/12/14 06:48:54;;;;;;;12.55;6.28;;;;;;;-3.33;85.58;100155.72;5032729;28;20033;-74
2022/12/14 06:51:20;;;;;;;19.17;14.57;;;;;;;-3.45;85.70;100161.22;5014471;28;20441;-74
2022/12/14 06:53:50;;;;;;;17.98;13.75;;;;;;;-3.42;85.80;100156.00;5032813;28;20123;-74
2022/12/14 06:56:17;;;;;;;13.50;5.78;;;;;;;-3.31;85.63;100164.25;5033262;28;20075;-75
2022/12/14 06:58:44;;;;;;;14.27;6.22;;;;;;;-3.30;85.60;100154.81;5026454;28;20030;-75
2022/12/14 07:01:14;;;;;;;17.60;13.93;;;;;;;-3.44;85.94;100157.78;5028913;28;20056;-75
2022/12/14 07:03:41;;;;;;;19.55;14.65;;;;;;;-3.45;86.63;100157.81;5029348;28;20549;-75
2022/12/14 07:06:07;;;;;;;17.58;14.32;;;;;;;-3.46;86.46;100154.41;5032807;28;20057;-74
2022/12/14 07:08:34;;;;;;;15.77;6.28;;;;;;;-3.33;86.65;100165.19;5031348;28;20444;-74
2022/12/14 07:11:11;;;;;;;16.13;7.03;;;;;;;-3.33;86.29;100163.44;5031781;28;20021;-75
2022/12/14 07:13:37;;;;;;;16.85;6.32;;;;;;;-3.32;85.98;100167.72;5032139;28;20061;-75
2022/12/14 07:16:05;;;;;;;19.40;14.38;;;;;;;-3.48;86.06;100161.31;5013723;28;20056;-74
2022/12/14 07:18:31;;;;;;;18.70;14.65;;;;;;;-3.51;85.94;100161.41;5010723;28;20072;-75
2022/12/14 07:21:08;;;;;;;26.08;15.63;;;;;;;-3.50;86.94;100169.06;5018548;28;20030;-74
2022/12/14 07:23:36;;;;;;;14.95;6.63;;;;;;;-3.42;86.29;100165.44;5028014;28;20037;-75
2022/12/14 07:26:01;;;;;;;19.48;14.40;;;;;;;-3.56;86.40;100165.84;5030000;28;20021;-75
2022/12/14 07:28:28;;;;;;;21.63;7.43;;;;;;;-3.45;86.51;100163.81;5029134;28;20618;-75
2022/12/14 07:30:55;;;;;;;21.27;14.45;;;;;;;-3.60;85.89;100165.06;5009857;28;20144;-75
2022/12/14 07:33:20;;;;;;;23.88;16.00;;;;;;;-3.60;86.40;100165.06;4999002;28;20370;-75
2022/12/14 07:35:46;;;;;;;19.42;14.63;;;;;;;-3.63;86.52;100172.00;5014180;28;20036;-74
2022/12/14 07:38:11;;;;;;;14.82;7.10;;;;;;;-3.55;86.32;100175.22;4998713;28;20014;-74
2022/12/14 07:40:37;;;;;;;15.48;6.85;;;;;;;-3.56;86.19;100178.69;5031771;28;20470;-74
2022/12/14 07:43:05;;;;;;;13.40;6.25;;;;;;;-3.58;86.28;100167.59;5032240;28;20159;-74
2022/12/14 07:45:30;;;;;;;20.50;6.18;;;;;;;-3.60;86.58;100171.91;5013221;28;20447;-74
2022/12/14 07:47:56;;;;;;;22.38;15.02;;;;;;;-3.79;86.47;100171.56;5031057;28;20104;-73
2022/12/14 07:50:21;;;;;;;14.20;7.03;;;;;;;-3.68;86.39;100169.56;5030027;28;20029;-73
2022/12/14 07:52:47;;;;;;;25.73;15.25;;;;;;;-3.82;87.33;100171.66;5031693;28;20018;-74
2022/12/14 07:55:12;;;;;;;28.70;16.70;;;;;;;-3.87;87.32;100166.63;5013257;28;20075;-74
2022/12/14 07:57:38;;;;;;;27.15;15.65;;;;;;;-3.90;87.13;100164.16;5013385;28;20030;-74
2022/12/14 08:00:03;;;;;;;21.52;15.70;;;;;;;-3.94;87.69;100172.81;5030492;28;20021;-74
2022/12/14 08:02:29;;;;;;;17.10;7.60;;;;;;;-3.82;87.35;100175.06;5028993;28;20047;-74
2022/12/14 08:04:54;;;;;;;19.27;8.57;;;;;;;-3.81;87.71;100179.31;5029787;28;20060;-74
2022/12/14 08:07:19;;;;;;;22.48;7.35;;;;;;;-3.81;87.87;100179.31;5012495;28;20052;-74
2022/12/14 08:09:45;;;;;;;15.95;7.38;;;;;;;-3.80;87.73;100178.44;5029787;28;20029;-74
2022/12/14 08:12:10;;;;;;;19.52;6.97;;;;;;;-3.79;87.68;100182.69;5012772;28;20033;-74
2022/12/14 08:14:35;;;;;;;23.05;14.98;;;;;;;-3.89;88.74;100188.13;5028694;28;20030;-74
2022/12/14 08:17:01;;;;;;;23.95;15.90;;;;;;;-3.93;88.07;100184.78;5012182;28;20382;-74
2022/12/14 08:19:26;;;;;;;24.70;15.82;;;;;;;-3.97;88.41;100184.91;5022207;28;20047;-74
2022/12/14 08:21:51;;;;;;;15.48;6.80;;;;;;;-3.81;88.35;100189.59;5028883;28;20018;-74
2022/12/14 08:24:17;;;;;;;24.40;16.08;;;;;;;-3.93;88.84;100191.66;5027066;28;20029;-74
2022/12/14 08:26:42;;;;;;;16.23;6.60;;;;;;;-3.81;88.45;100192.16;5027049;28;20051;-75
2022/12/14 08:29:10;;;;;;;12.73;5.93;;;;;;;-3.81;88.24;100197.31;5030209;28;20071;-75
2022/12/14 08:31:35;;;;;;;17.33;6.10;;;;;;;-3.81;88.16;100194.75;5013012;28;20025;-74
2022/12/14 08:34:01;;;;;;;14.15;6.22;;;;;;;-3.82;88.62;100195.63;5031531;28;20024;-74
2022/12/14 08:36:28;;;;;;;16.38;6.75;;;;;;;-3.84;88.28;100197.38;5030310;28;20029;-73
2022/12/14 08:38:56;;;;;;;22.35;15.48;;;;;;;-4.03;89.13;100193.59;5013849;28;20018;-74
2022/12/14 08:41:23;;;;;;;15.20;6.38;;;;;;;-3.89;88.63;100200.97;5027903;28;20029;-74
2022/12/14 08:43:53;;;;;;;17.67;7.05;;;;;;;-3.90;88.64;100207.84;5030479;28;20035;-74
2022/12/14 08:46:20;;;;;;;16.10;6.88;;;;;;;-3.92;88.68;100201.88;5030772;28;20030;-74
2022/12/14 08:48:46;;;;;;;14.90;6.97;;;;;;;-3.94;88.46;100203.66;5013326;28;20025;-74
2022/12/14 08:51:11;;;;;;;15.20;7.25;;;;;;;-3.98;88.23;100207.19;5012643;28;20035;-74
2022/12/14 08:53:38;;;;;;;26.08;15.50;;;;;;;-4.19;89.02;100202.56;5030877;28;20104;-74
2022/12/14 08:56:11;;;;;;;25.15;16.17;;;;;;;-4.25;89.30;100202.72;5029156;28;20092;-74
2022/12/14 08:58:38;;;;;;;23.52;15.85;;;;;;;-4.21;89.23;100204.31;5021371;28;20022;-74
2022/12/14 09:01:12;;;;;;;17.85;7.65;;;;;;;-4.13;88.79;100194.69;4998100;28;20018;-74
2022/12/14 09:03:47;;;;;;;14.77;7.00;;;;;;;-4.11;88.58;100195.50;5029311;28;20088;-75
2022/12/14 09:06:28;;;;;;;17.15;7.43;;;;;;;-4.07;88.79;100197.13;5030049;28;20017;-76
2022/12/14 09:08:54;;;;;;;18.30;7.28;;;;;;;-4.04;88.64;100196.19;5029115;28;20484;-75
2022/12/14 09:11:20;;;;;;;17.10;8.13;;;;;;;-4.04;88.47;100202.16;5011601;28;20362;-75
2022/12/14 09:13:46;;;;;;;13.95;7.43;;;;;;;-4.00;88.60;100214.09;5012514;28;20489;-75
2022/12/14 09:16:22;;;;;;;24.15;15.48;;;;;;;-4.02;88.60;100214.97;5008765;28;20021;-75
2022/12/14 09:18:49;;;;;;;20.20;7.03;;;;;;;-3.91;88.87;100213.84;5002050;28;20048;-74
2022/12/14 09:21:15;;;;;;;21.73;7.90;;;;;;;-3.85;88.62;100212.84;5030131;28;20025;-74
2022/12/14 09:23:41;;;;;;;15.23;7.13;;;;;;;-3.80;88.17;100217.00;5011940;28;20044;-75
2022/12/14 09:26:12;;;;;;;18.67;7.43;;;;;;;-3.74;88.17;100221.13;5029254;28;20108;-74
2022/12/14 09:28:39;;;;;;;14.70;6.43;;;;;;;-3.69;88.13;100216.69;5011361;28;20071;-74
2022/12/14 09:31:07;;;;;;;14.77;6.47;;;;;;;-3.67;87.54;100227.78;5008372;28;20123;-73
2022/12/14 09:33:33;;;;;;;16.40;6.65;;;;;;;-3.65;87.45;100226.03;5005241;28;20030;-74
2022/12/14 09:36:15;;;;;;;16.23;6.25;;;;;;;-3.62;87.01;100225.09;5008922;28;20457;-74
2022/12/14 09:38:42;;;;;;;25.98;15.43;;;;;;;-3.64;86.64;100224.28;5009539;28;20025;-74
2022/12/14 09:41:32;;;;;;;11.27;5.88;;;;;;;-3.56;86.79;100225.81;5008292;28;20490;-74
2022/12/14 09:44:29;;;;;;;21.05;15.55;;;;;;;-3.54;86.25;100223.19;5008453;28;20057;-77
2022/12/14 09:47:16;;;;;;;21.00;15.60;;;;;;;-3.51;86.12;100212.81;5009108;28;20068;-77
2022/12/14 09:49:55;;;;;;;21.98;14.43;;;;;;;-3.43;85.16;100216.03;5010124;28;20049;-74
2022/12/14 09:52:35;;;;;;;16.55;6.43;;;;;;;-3.37;85.49;100208.16;5007897;28;20034;-74
2022/12/14 09:55:09;;;;;;;21.75;14.20;;;;;;;-3.34;84.65;100215.78;5009736;28;20030;-75
2022/12/14 09:57:38;;;;;;;14.65;6.80;;;;;;;-3.26;84.61;100226.69;5004166;28;20033;-75
2022/12/14 10:00:17;;;;;;;12.63;5.60;;;;;;;-3.21;84.66;100229.13;5006631;28;20040;-75
2022/12/14 10:03:33;;;;;;;15.05;7.05;;;;;;;-3.16;84.26;100225.56;5000910;28;20489;-75
2022/12/14 10:06:27;;;;;;;16.88;6.88;;;;;;;-3.12;84.35;100230.63;4972031;28;20030;-75
2022/12/14 10:09:34;;;;;;;14.65;5.90;;;;;;;-3.06;84.34;100226.16;4985174;28;20494;-75
2022/12/14 10:12:30;;;;;;;18.98;7.47;;;;;;;-3.00;84.33;100220.81;5009655;28;20045;-75
2022/12/14 10:15:21;;;;;;;19.75;6.20;;;;;;;-2.97;83.12;100218.16;5007755;28;20475;-75
2022/12/14 10:18:02;;;;;;;14.40;6.18;;;;;;;-2.93;83.88;100214.59;5006225;28;20022;-75
2022/12/14 10:20:47;;;;;;;17.42;7.60;;;;;;;-2.89;83.02;100208.47;5007289;28;20172;-75
2022/12/14 10:23:16;;;;;;;17.10;13.25;;;;;;;-2.87;82.80;100205.88;4988364;28;20479;-75
2022/12/14 10:25:43;;;;;;;11.13;5.82;;;;;;;-2.79;83.34;100208.25;5001582;28;20542;-76
2022/12/14 10:28:36;;;;;;;17.67;13.25;;;;;;;-2.78;82.56;100215.06;5005045;28;20237;-76
2022/12/14 10:31:06;;;;;;;14.88;5.88;;;;;;;-2.72;83.10;100222.59;5008005;28;20057;-76
2022/12/14 10:33:32;;;;;;;17.05;12.55;;;;;;;-2.75;81.71;100218.41;5008176;28;20033;-76
2022/12/14 10:36:03;;;;;;;16.17;6.15;;;;;;;-2.68;82.27;100219.88;5008123;28;20072;-74
2022/12/14 10:38:49;;;;;;;12.50;5.43;;;;;;;-2.63;82.51;100215.44;4998945;28;20022;-74
2022/12/14 10:41:34;;;;;;;15.95;12.60;;;;;;;-2.61;82.10;100217.97;5008178;28;20022;-74
2022/12/14 10:44:22;;;;;;;17.20;12.80;;;;;;;-2.58;82.07;100223.88;5008620;28;20121;-74
2022/12/14 10:47:08;;;;;;;11.48;5.85;;;;;;;-2.50;82.54;100215.06;5007044;28;20030;-74
2022/12/14 10:50:05;;;;;;;16.58;7.00;;;;;;;-2.45;82.46;100219.19;5007486;28;20018;-74
2022/12/14 10:52:40;;;;;;;20.42;13.20;;;;;;;-2.47;81.08;100225.25;5008114;28;20076;-75
2022/12/14 10:55:13;;;;;;;17.92;13.20;;;;;;;-2.40;81.46;100229.34;5009362;28;20014;-74
2022/12/14 10:57:38;;;;;;;16.98;12.50;;;;;;;-2.38;80.48;100222.44;5027506;28;20034;-74
2022/12/14 11:00:11;;;;;;;11.82;5.57;;;;;;;-2.31;80.48;100216.19;5010535;28;20076;-74
2022/12/14 11:02:41;;;;;;;18.23;12.70;;;;;;;-2.33;79.19;100223.13;5011505;28;20037;-75
2022/12/14 11:05:26;;;;;;;15.65;12.82;;;;;;;-2.27;80.69;100218.63;5011861;28;20057;-75
2022/12/14 11:07:51;;;;;;;14.55;5.43;;;;;;;-2.22;80.26;100215.91;5013269;28;20493;-75
2022/12/14 11:10:22;;;;;;;19.45;12.48;;;;;;;-2.24;80.63;100223.69;5011453;28;20018;-74
2022/12/14 11:13:15;;;;;;;15.33;11.87;;;;;;;-2.22;79.07;100223.63;5011995;28;20033;-75
2022/12/14 11:15:48;;;;;;;12.95;5.65;;;;;;;-2.16;79.31;100226.00;5011389;28;20051;-76
2022/12/14 11:18:14;;;;;;;12.40;5.70;;;;;;;-2.12;79.49;100219.00;5011904;28;20113;-75
2022/12/14 11:20:52;;;;;;;17.98;13.63;;;;;;;-2.10;79.81;100218.06;5010582;28;20054;-75
2022/12/14 11:23:29;;;;;;;17.60;12.85;;;;;;;-2.09;78.88;100216.34;5013002;28;20473;-75
2022/12/14 11:26:00;;;;;;;19.08;13.27;;;;;;;-2.09;78.37;100219.75;5010761;28;20018;-75
2022/12/14 11:28:25;;;;;;;13.95;5.75;;;;;;;-2.00;79.08;100219.47;5010925;28;20025;-75
2022/12/14 11:31:10;;;;;;;16.25;12.05;;;;;;;-1.96;78.83;100221.06;5025398;28;20164;-76
2022/12/14 11:33:47;;;;;;;14.82;5.75;;;;;;;-1.90;79.55;100226.00;5022000;28;20121;-75
2022/12/14 11:36:37;;;;;;;14.02;6.35;;;;;;;-1.82;79.11;100224.91;5023826;28;20052;-75
2022/12/14 11:39:22;;;;;;;16.55;12.65;;;;;;;-1.81;78.28;100219.69;5026405;28;20436;-74
2022/12/14 11:42:05;;;;;;;17.55;11.88;;;;;;;-1.75;77.54;100226.38;5029330;28;20033;-76
2022/12/14 11:44:36;;;;;;;16.83;13.02;;;;;;;-1.74;77.74;100222.91;5027239;28;20085;-73
2022/12/14 11:47:07;;;;;;;16.65;12.05;;;;;;;-1.72;77.17;100224.53;5030465;28;20104;-76
2022/12/14 11:49:38;;;;;;;16.10;6.43;;;;;;;-1.63;77.59;100211.34;5010667;28;20498;-73
2022/12/14 11:52:03;;;;;;;19.40;12.35;;;;;;;-1.63;77.46;100210.50;5011778;28;20126;-74
2022/12/14 11:54:32;;;;;;;15.07;12.45;;;;;;;-1.60;77.34;100220.72;5029907;28;20052;-73